sensor_id;sensor_type;location;lat;lon;timestamp;temperature;humidity
1546;DHT22;766;51.502;9.752;2023-04-24T00:00:29;11.10;99.90
1546;DHT22;766;51.502;9.752;2023-04-24T00:02:58;11.10;99.90
1546;DHT22;766;51.502;9.752;2023-04-24T00:05:27;11.10;99.90
1546;DHT22;766;51.502;9.752;2023-04-24T00:07:55;11.00;99.90
1546;DHT22;766;51.502;9.752;2023-04-24T00:10:24;10.90;99.90
1546;DHT22;766;51.502;9.752;2023-04-24T00:12:53;10.90;99.90
1546;DHT22;766;51.502;9.752;2023-04-24T00:15:22;10.90;99.90
1546;DHT22;766;51.502;9.752;2023-04-24T00:17:50;10.80;99.90
1546;DHT22;766;51.502;9.752;2023-04-24T00:20:20;10.90;99.90
1546;DHT22;766;51.502;9.752;2023-04-24T00:22:49;10.80;99.90
1546;DHT22;766;51.502;9.752;2023-04-24T00:25:18;10.70;99.90
1546;DHT22;766;51.502;9.752;2023-04-24T00:27:46;10.70;99.90
1546;DHT22;766;51.502;9.752;2023-04-24T00:30:16;10.70;99.90
1546;DHT22;766;51.502;9.752;2023-04-24T00:32:44;10.70;99.90
1546;DHT22;766;51.502;9.752;2023-04-24T00:35:13;10.70;99.90
1546;DHT22;766;51.502;9.752;2023-04-24T00:37:42;10.60;99.90
1546;DHT22;766;51.502;9.752;2023-04-24T00:40:11;10.60;99.90
1546;DHT22;766;51.502;9.752;2023-04-24T00:42:40;10.60;99.90
1546;DHT22;766;51.502;9.752;2023-04-24T00:45:10;10.60;99.90
1546;DHT22;766;51.502;9.752;2023-04-24T00:47:41;10.60;99.90
1546;DHT22;766;51.502;9.752;2023-04-24T00:50:10;10.60;99.90
1546;DHT22;766;51.502;9.752;2023-04-24T00:52:40;10.50;99.90
1546;DHT22;766;51.502;9.752;2023-04-24T00:55:09;10.60;99.90
1546;DHT22;766;51.502;9.752;2023-04-24T00:57:37;10.50;99.90
1546;DHT22;766;51.502;9.752;2023-04-24T01:00:06;10.50;99.90
1546;DHT22;766;51.502;9.752;2023-04-24T01:02:43;10.50;99.90
1546;DHT22;766;51.502;9.752;2023-04-24T01:05:13;10.50;99.90
1546;DHT22;766;51.502;9.752;2023-04-24T01:07:44;10.50;99.90
1546;DHT22;766;51.502;9.752;2023-04-24T01:10:14;10.40;99.90
1546;DHT22;766;51.502;9.752;2023-04-24T01:12:42;10.40;99.90
1546;DHT22;766;51.502;9.752;2023-04-24T01:15:13;10.40;99.90
1546;DHT22;766;51.502;9.752;2023-04-24T01:17:43;10.40;99.90
1546;DHT22;766;51.502;9.752;2023-04-24T01:20:12;10.40;99.90
1546;DHT22;766;51.502;9.752;2023-04-24T01:22:43;10.40;99.90
1546;DHT22;766;51.502;9.752;2023-04-24T01:25:12;10.40;99.90
1546;DHT22;766;51.502;9.752;2023-04-24T01:27:40;10.40;99.90
1546;DHT22;766;51.502;9.752;2023-04-24T01:30:09;10.40;99.90
1546;DHT22;766;51.502;9.752;2023-04-24T01:32:39;10.30;99.90
1546;DHT22;766;51.502;9.752;2023-04-24T01:35:08;10.20;99.90
1546;DHT22;766;51.502;9.752;2023-04-24T01:37:36;10.20;99.90
1546;DHT22;766;51.502;9.752;2023-04-24T01:40:08;10.20;99.90
1546;DHT22;766;51.502;9.752;2023-04-24T01:42:36;10.20;99.90
1546;DHT22;766;51.502;9.752;2023-04-24T01:45:06;10.20;99.90
1546;DHT22;766;51.502;9.752;2023-04-24T01:47:34;10.10;99.90
1546;DHT22;766;51.502;9.752;2023-04-24T01:50:03;10.10;99.90
1546;DHT22;766;51.502;9.752;2023-04-24T01:52:32;10.10;99.90
1546;DHT22;766;51.502;9.752;2023-04-24T01:55:02;10.10;99.90
1546;DHT22;766;51.502;9.752;2023-04-24T01:57:33;10.10;99.90
1546;DHT22;766;51.502;9.752;2023-04-24T02:00:01;10.10;99.90
1546;DHT22;766;51.502;9.752;2023-04-24T02:02:31;10.10;99.90
1546;DHT22;766;51.502;9.752;2023-04-24T02:05:00;10.00;99.90
1546;DHT22;766;51.502;9.752;2023-04-24T02:07:29;10.00;99.90
1546;DHT22;766;51.502;9.752;2023-04-24T02:09:58;10.10;99.90
1546;DHT22;766;51.502;9.752;2023-04-24T02:12:26;10.10;99.90
1546;DHT22;766;51.502;9.752;2023-04-24T02:14:57;10.00;99.90
1546;DHT22;766;51.502;9.752;2023-04-24T02:17:25;10.00;99.90
1546;DHT22;766;51.502;9.752;2023-04-24T02:19:53;10.00;99.90
1546;DHT22;766;51.502;9.752;2023-04-24T02:22:22;10.00;99.90
1546;DHT22;766;51.502;9.752;2023-04-24T02:24:50;10.00;99.90
1546;DHT22;766;51.502;9.752;2023-04-24T02:27:18;10.00;99.90
1546;DHT22;766;51.502;9.752;2023-04-24T02:29:47;10.00;99.90
1546;DHT22;766;51.502;9.752;2023-04-24T02:32:17;10.10;99.90
1546;DHT22;766;51.502;9.752;2023-04-24T02:34:48;10.10;99.90
1546;DHT22;766;51.502;9.752;2023-04-24T02:37:16;10.20;99.90
1546;DHT22;766;51.502;9.752;2023-04-24T02:39:45;10.20;99.90
1546;DHT22;766;51.502;9.752;2023-04-24T02:42:13;10.20;99.90
1546;DHT22;766;51.502;9.752;2023-04-24T02:44:42;10.10;99.90
1546;DHT22;766;51.502;9.752;2023-04-24T02:47:11;10.30;99.90
1546;DHT22;766;51.502;9.752;2023-04-24T02:49:41;10.30;99.90
1546;DHT22;766;51.502;9.752;2023-04-24T02:52:11;10.30;99.90
1546;DHT22;766;51.502;9.752;2023-04-24T02:54:40;10.20;99.90
1546;DHT22;766;51.502;9.752;2023-04-24T02:57:08;10.30;99.90
1546;DHT22;766;51.502;9.752;2023-04-24T02:59:36;10.30;99.90
1546;DHT22;766;51.502;9.752;2023-04-24T03:02:05;10.30;99.90
1546;DHT22;766;51.502;9.752;2023-04-24T03:04:34;10.30;99.90
1546;DHT22;766;51.502;9.752;2023-04-24T03:07:04;10.30;99.90
1546;DHT22;766;51.502;9.752;2023-04-24T03:09:33;10.30;99.90
1546;DHT22;766;51.502;9.752;2023-04-24T03:12:01;10.30;99.90
1546;DHT22;766;51.502;9.752;2023-04-24T03:14:29;10.50;99.90
1546;DHT22;766;51.502;9.752;2023-04-24T03:17:01;10.50;99.90
1546;DHT22;766;51.502;9.752;2023-04-24T03:19:29;10.40;99.90
1546;DHT22;766;51.502;9.752;2023-04-24T03:21:57;10.50;99.90
1546;DHT22;766;51.502;9.752;2023-04-24T03:24:27;10.50;99.90
1546;DHT22;766;51.502;9.752;2023-04-24T03:26:56;10.50;99.90
1546;DHT22;766;51.502;9.752;2023-04-24T03:29:24;10.40;99.90
1546;DHT22;766;51.502;9.752;2023-04-24T03:31:54;10.40;99.90
1546;DHT22;766;51.502;9.752;2023-04-24T03:34:23;10.50;99.90
1546;DHT22;766;51.502;9.752;2023-04-24T03:36:51;10.40;99.90
1546;DHT22;766;51.502;9.752;2023-04-24T03:39:20;10.40;99.90
1546;DHT22;766;51.502;9.752;2023-04-24T03:41:51;10.40;99.90
1546;DHT22;766;51.502;9.752;2023-04-24T03:44:19;10.40;99.90
1546;DHT22;766;51.502;9.752;2023-04-24T03:46:47;10.30;99.90
1546;DHT22;766;51.502;9.752;2023-04-24T03:49:19;10.20;99.90
1546;DHT22;766;51.502;9.752;2023-04-24T03:51:48;10.20;99.90
1546;DHT22;766;51.502;9.752;2023-04-24T03:54:16;10.20;99.90
1546;DHT22;766;51.502;9.752;2023-04-24T03:56:44;10.10;99.90
1546;DHT22;766;51.502;9.752;2023-04-24T03:59:14;10.10;99.90
1546;DHT22;766;51.502;9.752;2023-04-24T04:01:43;10.10;99.90
1546;DHT22;766;51.502;9.752;2023-04-24T04:04:12;10.10;99.90
1546;DHT22;766;51.502;9.752;2023-04-24T04:06:40;10.20;99.90
1546;DHT22;766;51.502;9.752;2023-04-24T04:09:09;10.30;99.90
1546;DHT22;766;51.502;9.752;2023-04-24T04:11:37;10.20;99.90
1546;DHT22;766;51.502;9.752;2023-04-24T04:14:05;10.20;99.90
1546;DHT22;766;51.502;9.752;2023-04-24T04:16:36;10.20;99.90
1546;DHT22;766;51.502;9.752;2023-04-24T04:19:04;10.20;99.90
1546;DHT22;766;51.502;9.752;2023-04-24T04:21:33;10.30;99.90
1546;DHT22;766;51.502;9.752;2023-04-24T04:24:02;10.30;99.90
1546;DHT22;766;51.502;9.752;2023-04-24T04:26:32;10.40;99.90
1546;DHT22;766;51.502;9.752;2023-04-24T04:29:00;10.30;99.90
1546;DHT22;766;51.502;9.752;2023-04-24T04:31:30;10.40;99.90
1546;DHT22;766;51.502;9.752;2023-04-24T04:34:00;10.30;99.90
1546;DHT22;766;51.502;9.752;2023-04-24T04:36:28;10.30;99.90
1546;DHT22;766;51.502;9.752;2023-04-24T04:38:57;10.40;99.90
1546;DHT22;766;51.502;9.752;2023-04-24T04:41:26;10.40;99.90
1546;DHT22;766;51.502;9.752;2023-04-24T04:43:54;10.40;99.90
1546;DHT22;766;51.502;9.752;2023-04-24T04:46:25;10.40;99.90
1546;DHT22;766;51.502;9.752;2023-04-24T04:48:54;10.30;99.90
1546;DHT22;766;51.502;9.752;2023-04-24T04:51:24;10.20;99.90
1546;DHT22;766;51.502;9.752;2023-04-24T04:53:53;10.10;99.90
1546;DHT22;766;51.502;9.752;2023-04-24T04:56:21;10.20;99.90
1546;DHT22;766;51.502;9.752;2023-04-24T04:58:49;10.10;99.90
1546;DHT22;766;51.502;9.752;2023-04-24T05:01:18;10.00;99.90
1546;DHT22;766;51.502;9.752;2023-04-24T05:03:47;10.00;99.90
1546;DHT22;766;51.502;9.752;2023-04-24T05:06:15;10.00;99.90
1546;DHT22;766;51.502;9.752;2023-04-24T05:08:45;10.10;99.90
1546;DHT22;766;51.502;9.752;2023-04-24T05:11:13;10.10;99.90
1546;DHT22;766;51.502;9.752;2023-04-24T05:13:42;10.00;99.90
1546;DHT22;766;51.502;9.752;2023-04-24T05:16:13;10.00;99.90
1546;DHT22;766;51.502;9.752;2023-04-24T05:18:41;10.10;99.90
1546;DHT22;766;51.502;9.752;2023-04-24T05:21:09;10.00;99.90
1546;DHT22;766;51.502;9.752;2023-04-24T05:23:38;10.00;99.90
1546;DHT22;766;51.502;9.752;2023-04-24T05:26:08;10.10;99.90
1546;DHT22;766;51.502;9.752;2023-04-24T05:28:36;10.10;99.90
1546;DHT22;766;51.502;9.752;2023-04-24T05:31:05;10.10;99.90
1546;DHT22;766;51.502;9.752;2023-04-24T05:33:33;10.10;99.90
1546;DHT22;766;51.502;9.752;2023-04-24T05:36:01;10.00;99.90
1546;DHT22;766;51.502;9.752;2023-04-24T05:38:30;10.00;99.90
1546;DHT22;766;51.502;9.752;2023-04-24T05:40:58;10.00;99.90
1546;DHT22;766;51.502;9.752;2023-04-24T05:43:28;10.10;99.90
1546;DHT22;766;51.502;9.752;2023-04-24T05:45:56;10.10;99.90
1546;DHT22;766;51.502;9.752;2023-04-24T05:48:25;10.10;99.90
1546;DHT22;766;51.502;9.752;2023-04-24T05:50:54;10.10;99.90
1546;DHT22;766;51.502;9.752;2023-04-24T05:53:22;10.10;99.90
1546;DHT22;766;51.502;9.752;2023-04-24T05:55:51;10.10;99.90
1546;DHT22;766;51.502;9.752;2023-04-24T05:58:23;10.10;99.90
1546;DHT22;766;51.502;9.752;2023-04-24T06:00:52;10.20;99.90
1546;DHT22;766;51.502;9.752;2023-04-24T06:03:22;10.10;99.90
1546;DHT22;766;51.502;9.752;2023-04-24T06:05:50;10.10;99.90
1546;DHT22;766;51.502;9.752;2023-04-24T06:08:19;10.00;99.90
1546;DHT22;766;51.502;9.752;2023-04-24T06:10:48;9.90;99.90
1546;DHT22;766;51.502;9.752;2023-04-24T06:13:16;9.80;99.90
1546;DHT22;766;51.502;9.752;2023-04-24T06:15:44;9.30;99.90
1546;DHT22;766;51.502;9.752;2023-04-24T06:18:14;9.20;99.90
1546;DHT22;766;51.502;9.752;2023-04-24T06:20:42;9.00;99.90
1546;DHT22;766;51.502;9.752;2023-04-24T06:23:11;8.90;99.90
1546;DHT22;766;51.502;9.752;2023-04-24T06:25:39;9.00;99.90
1546;DHT22;766;51.502;9.752;2023-04-24T06:28:08;9.20;99.90
1546;DHT22;766;51.502;9.752;2023-04-24T06:30:36;9.60;99.90
1546;DHT22;766;51.502;9.752;2023-04-24T06:33:05;9.70;99.90
1546;DHT22;766;51.502;9.752;2023-04-24T06:35:48;9.70;99.90
1546;DHT22;766;51.502;9.752;2023-04-24T06:38:17;10.10;99.90
1546;DHT22;766;51.502;9.752;2023-04-24T06:40:45;10.70;99.90
1546;DHT22;766;51.502;9.752;2023-04-24T06:43:13;11.10;99.90
1546;DHT22;766;51.502;9.752;2023-04-24T06:45:42;11.00;99.90
1546;DHT22;766;51.502;9.752;2023-04-24T06:48:11;11.30;99.90
1546;DHT22;766;51.502;9.752;2023-04-24T06:50:39;11.30;99.90
1546;DHT22;766;51.502;9.752;2023-04-24T06:53:09;11.40;99.90
1546;DHT22;766;51.502;9.752;2023-04-24T06:55:39;11.60;99.90
1546;DHT22;766;51.502;9.752;2023-04-24T06:58:08;11.80;99.90
1546;DHT22;766;51.502;9.752;2023-04-24T07:00:37;11.60;99.90
1546;DHT22;766;51.502;9.752;2023-04-24T07:03:05;11.50;99.90
1546;DHT22;766;51.502;9.752;2023-04-24T07:05:34;11.40;99.90
1546;DHT22;766;51.502;9.752;2023-04-24T07:08:03;11.10;99.90
1546;DHT22;766;51.502;9.752;2023-04-24T07:10:36;11.90;99.90
1546;DHT22;766;51.502;9.752;2023-04-24T07:13:04;11.60;99.90
1546;DHT22;766;51.502;9.752;2023-04-24T07:15:34;10.90;99.90
1546;DHT22;766;51.502;9.752;2023-04-24T07:18:02;10.50;99.90
1546;DHT22;766;51.502;9.752;2023-04-24T07:20:32;10.50;99.90
1546;DHT22;766;51.502;9.752;2023-04-24T07:23:01;11.90;99.90
1546;DHT22;766;51.502;9.752;2023-04-24T07:25:33;12.80;99.90
1546;DHT22;766;51.502;9.752;2023-04-24T07:28:04;13.40;99.90
1546;DHT22;766;51.502;9.752;2023-04-24T07:30:35;13.70;99.90
1546;DHT22;766;51.502;9.752;2023-04-24T07:33:04;14.00;99.90
1546;DHT22;766;51.502;9.752;2023-04-24T07:35:33;14.10;99.90
1546;DHT22;766;51.502;9.752;2023-04-24T07:38:02;14.60;99.90
1546;DHT22;766;51.502;9.752;2023-04-24T07:40:31;13.80;99.90
1546;DHT22;766;51.502;9.752;2023-04-24T07:42:59;13.70;99.90
1546;DHT22;766;51.502;9.752;2023-04-24T07:45:29;14.10;99.90
1546;DHT22;766;51.502;9.752;2023-04-24T07:47:58;14.20;99.90
1546;DHT22;766;51.502;9.752;2023-04-24T07:50:26;14.50;99.90
1546;DHT22;766;51.502;9.752;2023-04-24T07:52:55;15.00;99.90
1546;DHT22;766;51.502;9.752;2023-04-24T07:55:23;14.90;99.90
1546;DHT22;766;51.502;9.752;2023-04-24T07:57:54;13.60;99.90
1546;DHT22;766;51.502;9.752;2023-04-24T08:00:22;12.90;99.90
1546;DHT22;766;51.502;9.752;2023-04-24T08:02:52;13.80;99.90
1546;DHT22;766;51.502;9.752;2023-04-24T08:05:21;14.20;99.90
1546;DHT22;766;51.502;9.752;2023-04-24T08:07:53;13.50;99.90
1546;DHT22;766;51.502;9.752;2023-04-24T08:10:22;13.50;99.90
1546;DHT22;766;51.502;9.752;2023-04-24T08:12:50;13.90;99.90
1546;DHT22;766;51.502;9.752;2023-04-24T08:15:19;14.30;99.90
1546;DHT22;766;51.502;9.752;2023-04-24T08:17:48;14.90;99.90
1546;DHT22;766;51.502;9.752;2023-04-24T08:20:19;14.00;99.90
1546;DHT22;766;51.502;9.752;2023-04-24T08:22:48;13.40;99.90
1546;DHT22;766;51.502;9.752;2023-04-24T08:25:16;13.20;99.90
1546;DHT22;766;51.502;9.752;2023-04-24T08:27:45;13.70;99.90
1546;DHT22;766;51.502;9.752;2023-04-24T08:30:14;14.40;99.90
1546;DHT22;766;51.502;9.752;2023-04-24T08:32:42;14.40;99.90
1546;DHT22;766;51.502;9.752;2023-04-24T08:35:11;14.00;99.90
1546;DHT22;766;51.502;9.752;2023-04-24T08:37:41;13.10;99.90
1546;DHT22;766;51.502;9.752;2023-04-24T08:40:13;12.90;99.90
1546;DHT22;766;51.502;9.752;2023-04-24T08:42:42;13.70;99.90
1546;DHT22;766;51.502;9.752;2023-04-24T08:45:12;14.20;99.90
1546;DHT22;766;51.502;9.752;2023-04-24T08:47:44;15.10;99.90
1546;DHT22;766;51.502;9.752;2023-04-24T08:50:12;15.20;99.90
1546;DHT22;766;51.502;9.752;2023-04-24T08:52:43;15.20;99.90
1546;DHT22;766;51.502;9.752;2023-04-24T08:55:12;15.10;99.90
1546;DHT22;766;51.502;9.752;2023-04-24T08:57:45;15.40;99.90
1546;DHT22;766;51.502;9.752;2023-04-24T09:00:17;15.70;99.90
1546;DHT22;766;51.502;9.752;2023-04-24T09:02:47;16.30;99.90
1546;DHT22;766;51.502;9.752;2023-04-24T09:05:17;14.80;99.90
1546;DHT22;766;51.502;9.752;2023-04-24T09:07:53;13.70;99.90
1546;DHT22;766;51.502;9.752;2023-04-24T09:10:24;12.40;99.90
1546;DHT22;766;51.502;9.752;2023-04-24T09:12:52;11.90;99.90
1546;DHT22;766;51.502;9.752;2023-04-24T09:15:22;11.50;99.90
1546;DHT22;766;51.502;9.752;2023-04-24T09:17:53;11.20;99.90
1546;DHT22;766;51.502;9.752;2023-04-24T09:20:21;10.90;99.90
1546;DHT22;766;51.502;9.752;2023-04-24T09:22:53;10.70;99.90
1546;DHT22;766;51.502;9.752;2023-04-24T09:25:25;10.80;99.90
1546;DHT22;766;51.502;9.752;2023-04-24T09:28:01;10.90;99.90
1546;DHT22;766;51.502;9.752;2023-04-24T09:34:02;10.80;99.90
1546;DHT22;766;51.502;9.752;2023-04-24T09:36:36;10.90;99.90
1546;DHT22;766;51.502;9.752;2023-04-24T09:39:12;10.70;99.90
1546;DHT22;766;51.502;9.752;2023-04-24T09:41:55;10.80;99.90
1546;DHT22;766;51.502;9.752;2023-04-24T09:44:36;10.80;99.90
1546;DHT22;766;51.502;9.752;2023-04-24T09:47:09;11.20;99.90
1546;DHT22;766;51.502;9.752;2023-04-24T09:49:37;11.20;99.90
1546;DHT22;766;51.502;9.752;2023-04-24T09:52:10;11.30;99.90
1546;DHT22;766;51.502;9.752;2023-04-24T09:54:40;11.40;99.90
1546;DHT22;766;51.502;9.752;2023-04-24T09:57:09;12.00;99.90
1546;DHT22;766;51.502;9.752;2023-04-24T09:59:42;12.30;99.90
1546;DHT22;766;51.502;9.752;2023-04-24T10:06:03;12.10;99.90
1546;DHT22;766;51.502;9.752;2023-04-24T10:08:36;12.00;99.90
1546;DHT22;766;51.502;9.752;2023-04-24T10:11:07;12.00;99.90
1546;DHT22;766;51.502;9.752;2023-04-24T10:13:39;11.90;99.90
1546;DHT22;766;51.502;9.752;2023-04-24T10:16:08;11.60;99.90
1546;DHT22;766;51.502;9.752;2023-04-24T10:18:39;11.50;99.90
1546;DHT22;766;51.502;9.752;2023-04-24T10:21:08;11.30;99.90
1546;DHT22;766;51.502;9.752;2023-04-24T10:23:38;11.40;99.90
1546;DHT22;766;51.502;9.752;2023-04-24T10:26:12;11.70;99.90
1546;DHT22;766;51.502;9.752;2023-04-24T10:28:47;12.10;99.90
1546;DHT22;766;51.502;9.752;2023-04-24T10:31:17;12.20;99.90
1546;DHT22;766;51.502;9.752;2023-04-24T10:33:46;12.20;99.90
1546;DHT22;766;51.502;9.752;2023-04-24T10:36:16;12.90;99.90
1546;DHT22;766;51.502;9.752;2023-04-24T10:38:46;12.90;99.90
1546;DHT22;766;51.502;9.752;2023-04-24T10:41:21;12.50;99.90
1546;DHT22;766;51.502;9.752;2023-04-24T10:44:04;12.80;99.90
1546;DHT22;766;51.502;9.752;2023-04-24T10:46:33;13.20;99.90
1546;DHT22;766;51.502;9.752;2023-04-24T10:49:04;13.20;99.90
1546;DHT22;766;51.502;9.752;2023-04-24T10:51:47;12.30;99.90
1546;DHT22;766;51.502;9.752;2023-04-24T10:54:23;11.90;99.90
1546;DHT22;766;51.502;9.752;2023-04-24T10:56:53;11.40;99.90
1546;DHT22;766;51.502;9.752;2023-04-24T10:59:25;11.80;99.90
1546;DHT22;766;51.502;9.752;2023-04-24T11:01:54;11.90;99.90
1546;DHT22;766;51.502;9.752;2023-04-24T11:04:29;12.00;99.90
1546;DHT22;766;51.502;9.752;2023-04-24T11:06:58;11.80;99.90
1546;DHT22;766;51.502;9.752;2023-04-24T11:09:28;12.00;99.90
1546;DHT22;766;51.502;9.752;2023-04-24T11:12:06;11.80;99.90
1546;DHT22;766;51.502;9.752;2023-04-24T11:15:00;12.00;99.90
1546;DHT22;766;51.502;9.752;2023-04-24T11:17:31;12.20;99.90
1546;DHT22;766;51.502;9.752;2023-04-24T11:20:05;11.80;99.90
1546;DHT22;766;51.502;9.752;2023-04-24T11:22:53;11.30;99.90
1546;DHT22;766;51.502;9.752;2023-04-24T11:25:24;10.90;99.90
1546;DHT22;766;51.502;9.752;2023-04-24T11:28:03;10.80;99.90
1546;DHT22;766;51.502;9.752;2023-04-24T11:30:32;10.30;99.90
1546;DHT22;766;51.502;9.752;2023-04-24T11:33:03;10.00;99.90
1546;DHT22;766;51.502;9.752;2023-04-24T11:35:38;9.70;99.90
1546;DHT22;766;51.502;9.752;2023-04-24T11:38:15;9.50;99.90
1546;DHT22;766;51.502;9.752;2023-04-24T11:40:52;9.50;99.90
1546;DHT22;766;51.502;9.752;2023-04-24T11:43:23;9.40;99.90
1546;DHT22;766;51.502;9.752;2023-04-24T11:45:51;9.40;99.90
1546;DHT22;766;51.502;9.752;2023-04-24T11:48:21;9.50;99.90
1546;DHT22;766;51.502;9.752;2023-04-24T11:50:50;9.60;99.90
1546;DHT22;766;51.502;9.752;2023-04-24T11:53:20;9.50;99.90
1546;DHT22;766;51.502;9.752;2023-04-24T11:55:49;9.60;99.90
1546;DHT22;766;51.502;9.752;2023-04-24T11:58:22;9.60;99.90
1546;DHT22;766;51.502;9.752;2023-04-24T12:00:56;9.80;99.90
1546;DHT22;766;51.502;9.752;2023-04-24T12:03:25;9.90;99.90
1546;DHT22;766;51.502;9.752;2023-04-24T12:06:04;9.80;99.90
1546;DHT22;766;51.502;9.752;2023-04-24T12:08:35;9.80;99.90
1546;DHT22;766;51.502;9.752;2023-04-24T12:11:06;9.90;99.90
1546;DHT22;766;51.502;9.752;2023-04-24T12:13:36;10.10;99.90
1546;DHT22;766;51.502;9.752;2023-04-24T12:16:05;10.10;99.90
1546;DHT22;766;51.502;9.752;2023-04-24T12:18:33;9.80;99.90
1546;DHT22;766;51.502;9.752;2023-04-24T12:21:18;9.80;99.90
1546;DHT22;766;51.502;9.752;2023-04-24T12:23:49;9.80;99.90
1546;DHT22;766;51.502;9.752;2023-04-24T12:26:18;9.80;99.90
1546;DHT22;766;51.502;9.752;2023-04-24T12:28:49;9.90;99.90
1546;DHT22;766;51.502;9.752;2023-04-24T12:31:20;9.70;99.90
1546;DHT22;766;51.502;9.752;2023-04-24T12:33:49;9.70;99.90
1546;DHT22;766;51.502;9.752;2023-04-24T12:36:18;9.80;99.90
1546;DHT22;766;51.502;9.752;2023-04-24T12:38:52;9.80;99.90
1546;DHT22;766;51.502;9.752;2023-04-24T12:41:21;9.60;99.90
1546;DHT22;766;51.502;9.752;2023-04-24T12:43:54;9.90;99.90
1546;DHT22;766;51.502;9.752;2023-04-24T12:46:22;9.90;99.90
1546;DHT22;766;51.502;9.752;2023-04-24T12:48:51;10.00;99.90
1546;DHT22;766;51.502;9.752;2023-04-24T12:51:20;9.80;99.90
1546;DHT22;766;51.502;9.752;2023-04-24T12:53:48;9.50;99.90
1546;DHT22;766;51.502;9.752;2023-04-24T12:56:17;9.60;99.90
1546;DHT22;766;51.502;9.752;2023-04-24T12:58:45;9.20;99.90
1546;DHT22;766;51.502;9.752;2023-04-24T13:01:18;9.20;99.90
1546;DHT22;766;51.502;9.752;2023-04-24T13:03:47;9.10;99.90
1546;DHT22;766;51.502;9.752;2023-04-24T13:06:16;9.00;99.90
1546;DHT22;766;51.502;9.752;2023-04-24T13:08:45;9.20;99.90
1546;DHT22;766;51.502;9.752;2023-04-24T13:11:14;9.40;99.90
1546;DHT22;766;51.502;9.752;2023-04-24T13:13:43;9.40;99.90
1546;DHT22;766;51.502;9.752;2023-04-24T13:16:12;9.30;99.90
1546;DHT22;766;51.502;9.752;2023-04-24T13:18:42;9.10;99.90
1546;DHT22;766;51.502;9.752;2023-04-24T13:21:10;9.10;99.90
1546;DHT22;766;51.502;9.752;2023-04-24T13:23:39;9.20;99.90
1546;DHT22;766;51.502;9.752;2023-04-24T13:26:09;9.20;99.90
1546;DHT22;766;51.502;9.752;2023-04-24T13:28:37;9.40;99.90
1546;DHT22;766;51.502;9.752;2023-04-24T13:31:06;9.80;99.90
1546;DHT22;766;51.502;9.752;2023-04-24T13:33:37;10.30;99.90
1546;DHT22;766;51.502;9.752;2023-04-24T13:36:07;10.40;99.90
1546;DHT22;766;51.502;9.752;2023-04-24T13:38:36;10.30;99.90
1546;DHT22;766;51.502;9.752;2023-04-24T13:41:06;10.00;99.90
1546;DHT22;766;51.502;9.752;2023-04-24T13:43:35;10.00;99.90
1546;DHT22;766;51.502;9.752;2023-04-24T13:46:03;10.20;99.90
1546;DHT22;766;51.502;9.752;2023-04-24T13:48:32;10.20;99.90
1546;DHT22;766;51.502;9.752;2023-04-24T13:51:00;10.20;99.90
1546;DHT22;766;51.502;9.752;2023-04-24T13:53:30;10.10;99.90
1546;DHT22;766;51.502;9.752;2023-04-24T13:55:59;9.90;99.90
1546;DHT22;766;51.502;9.752;2023-04-24T13:58:27;10.00;99.90
1546;DHT22;766;51.502;9.752;2023-04-24T14:00:56;9.80;99.90
1546;DHT22;766;51.502;9.752;2023-04-24T14:03:24;9.60;99.90
1546;DHT22;766;51.502;9.752;2023-04-24T14:05:53;9.50;99.90
1546;DHT22;766;51.502;9.752;2023-04-24T14:08:21;9.50;99.90
1546;DHT22;766;51.502;9.752;2023-04-24T14:10:52;9.40;99.90
1546;DHT22;766;51.502;9.752;2023-04-24T14:13:20;9.40;99.90
1546;DHT22;766;51.502;9.752;2023-04-24T14:15:49;9.50;99.90
1546;DHT22;766;51.502;9.752;2023-04-24T14:18:17;9.60;99.90
1546;DHT22;766;51.502;9.752;2023-04-24T14:20:46;9.50;99.90
1546;DHT22;766;51.502;9.752;2023-04-24T14:23:15;9.50;99.90
1546;DHT22;766;51.502;9.752;2023-04-24T14:25:44;9.50;99.90
1546;DHT22;766;51.502;9.752;2023-04-24T14:28:16;9.50;99.90
1546;DHT22;766;51.502;9.752;2023-04-24T14:30:48;9.50;99.90
1546;DHT22;766;51.502;9.752;2023-04-24T14:33:17;9.50;99.90
1546;DHT22;766;51.502;9.752;2023-04-24T14:35:46;9.40;99.90
1546;DHT22;766;51.502;9.752;2023-04-24T14:38:14;9.20;99.90
1546;DHT22;766;51.502;9.752;2023-04-24T14:40:43;9.30;99.90
1546;DHT22;766;51.502;9.752;2023-04-24T14:43:33;9.30;99.90
1546;DHT22;766;51.502;9.752;2023-04-24T14:46:05;9.30;99.90
1546;DHT22;766;51.502;9.752;2023-04-24T14:48:33;9.30;99.90
1546;DHT22;766;51.502;9.752;2023-04-24T14:51:02;9.20;99.90
1546;DHT22;766;51.502;9.752;2023-04-24T14:53:30;9.30;99.90
1546;DHT22;766;51.502;9.752;2023-04-24T14:55:59;9.20;99.90
1546;DHT22;766;51.502;9.752;2023-04-24T14:58:27;9.20;99.90
1546;DHT22;766;51.502;9.752;2023-04-24T15:00:57;9.20;99.90
1546;DHT22;766;51.502;9.752;2023-04-24T15:03:25;9.10;99.90
1546;DHT22;766;51.502;9.752;2023-04-24T15:05:55;9.00;99.90
1546;DHT22;766;51.502;9.752;2023-04-24T15:08:24;9.00;99.90
1546;DHT22;766;51.502;9.752;2023-04-24T15:10:52;9.00;99.90
1546;DHT22;766;51.502;9.752;2023-04-24T15:13:21;9.00;99.90
1546;DHT22;766;51.502;9.752;2023-04-24T15:15:50;8.90;99.90
1546;DHT22;766;51.502;9.752;2023-04-24T15:18:20;8.90;99.90
1546;DHT22;766;51.502;9.752;2023-04-24T15:20:48;8.90;99.90
1546;DHT22;766;51.502;9.752;2023-04-24T15:23:16;9.00;99.90
1546;DHT22;766;51.502;9.752;2023-04-24T15:25:46;8.90;99.90
1546;DHT22;766;51.502;9.752;2023-04-24T15:28:14;9.10;99.90
1546;DHT22;766;51.502;9.752;2023-04-24T15:30:43;9.40;99.90
1546;DHT22;766;51.502;9.752;2023-04-24T15:33:11;9.70;99.90
1546;DHT22;766;51.502;9.752;2023-04-24T15:35:41;9.80;99.90
1546;DHT22;766;51.502;9.752;2023-04-24T15:38:09;9.80;99.90
1546;DHT22;766;51.502;9.752;2023-04-24T15:40:41;9.80;99.90
1546;DHT22;766;51.502;9.752;2023-04-24T15:43:09;9.70;99.90
1546;DHT22;766;51.502;9.752;2023-04-24T15:45:38;9.70;99.90
1546;DHT22;766;51.502;9.752;2023-04-24T15:48:10;9.70;99.90
1546;DHT22;766;51.502;9.752;2023-04-24T15:50:38;9.60;99.90
1546;DHT22;766;51.502;9.752;2023-04-24T15:53:08;9.50;99.90
1546;DHT22;766;51.502;9.752;2023-04-24T15:55:37;9.50;99.90
1546;DHT22;766;51.502;9.752;2023-04-24T15:58:06;9.30;99.90
1546;DHT22;766;51.502;9.752;2023-04-24T16:00:34;9.20;99.90
1546;DHT22;766;51.502;9.752;2023-04-24T16:03:03;9.20;99.90
1546;DHT22;766;51.502;9.752;2023-04-24T16:05:35;9.10;99.90
1546;DHT22;766;51.502;9.752;2023-04-24T16:08:04;9.10;99.90
1546;DHT22;766;51.502;9.752;2023-04-24T16:10:34;9.20;99.90
1546;DHT22;766;51.502;9.752;2023-04-24T16:13:03;9.10;99.90
1546;DHT22;766;51.502;9.752;2023-04-24T16:15:33;9.20;99.90
1546;DHT22;766;51.502;9.752;2023-04-24T16:18:02;9.30;99.90
1546;DHT22;766;51.502;9.752;2023-04-24T16:20:31;9.30;99.90
1546;DHT22;766;51.502;9.752;2023-04-24T16:22:59;9.40;99.90
1546;DHT22;766;51.502;9.752;2023-04-24T16:25:27;9.30;99.90
1546;DHT22;766;51.502;9.752;2023-04-24T16:27:57;9.40;99.90
1546;DHT22;766;51.502;9.752;2023-04-24T16:30:26;9.30;99.90
1546;DHT22;766;51.502;9.752;2023-04-24T16:32:55;9.20;99.90
1546;DHT22;766;51.502;9.752;2023-04-24T16:35:23;9.20;99.90
1546;DHT22;766;51.502;9.752;2023-04-24T16:37:51;9.10;99.90
1546;DHT22;766;51.502;9.752;2023-04-24T16:40:20;9.10;99.90
1546;DHT22;766;51.502;9.752;2023-04-24T16:42:48;9.10;99.90
1546;DHT22;766;51.502;9.752;2023-04-24T16:45:20;9.10;99.90